Argyle, Florida
Current Conditions -  °F | °C
As of 4:15 AM on Thursday 23 Oct 2014 (Local Time) from K54J Reporting Station
Clear Clear  
Wind Chill: 51°   Ceiling: Unl
Heat Index: 51°   Visibility: 10mi
Dew Point: 45°   Wind: 7mph
Humidity: 79%   Direction: 30°NNE
Pressure: 30.06"   Gusts: NA
Location:  30.72°N, 86.04°W
Report Text: K54J 230915Z AUTO 03006KT 10SM CLR 11/07 A3006 RMK AO2 T01080073
Loading
Personal Weather Stations






























Interactive Weather Map
Tropical Storm Tracking
New forecast layout! Learn more

10-Day Weather Forecast

Advertisements
Track Severe Weather on mobile